sensor_id;sensor_type;location;lat;lon;timestamp;pressure;altitude;pressure_sealevel;temperature;humidity
82353;BME280;71954;47.430;18.920;2024-01-15T00:00:11;98709.53;;;1.17;64.87
82353;BME280;71954;47.430;18.920;2024-01-15T00:02:38;98702.63;;;1.16;64.35
82353;BME280;71954;47.430;18.920;2024-01-15T00:05:05;98692.94;;;1.18;64.63
82353;BME280;71954;47.430;18.920;2024-01-15T00:07:32;98689.28;;;1.21;64.78
82353;BME280;71954;47.430;18.920;2024-01-15T00:09:59;98690.03;;;1.23;64.79
82353;BME280;71954;47.430;18.920;2024-01-15T00:12:25;98684.72;;;1.25;65.03
82353;BME280;71954;47.430;18.920;2024-01-15T00:14:52;98675.19;;;1.23;64.55
82353;BME280;71954;47.430;18.920;2024-01-15T00:17:19;98664.81;;;1.22;64.36
82353;BME280;71954;47.430;18.920;2024-01-15T00:19:46;98658.97;;;1.18;64.66
82353;BME280;71954;47.430;18.920;2024-01-15T00:22:12;98648.91;;;1.12;65.18
82353;BME280;71954;47.430;18.920;2024-01-15T00:24:39;98638.75;;;1.08;65.43
82353;BME280;71954;47.430;18.920;2024-01-15T00:27:06;98642.22;;;1.08;65.41
82353;BME280;71954;47.430;18.920;2024-01-15T00:29:32;98622.97;;;1.09;65.46
82353;BME280;71954;47.430;18.920;2024-01-15T00:31:59;98623.63;;;1.13;65.39
82353;BME280;71954;47.430;18.920;2024-01-15T00:34:25;98618.31;;;1.14;65.32
82353;BME280;71954;47.430;18.920;2024-01-15T00:36:52;98622.56;;;1.15;65.21
82353;BME280;71954;47.430;18.920;2024-01-15T00:39:19;98618.94;;;1.18;65.09
82353;BME280;71954;47.430;18.920;2024-01-15T00:41:46;98625.00;;;1.18;65.14
82353;BME280;71954;47.430;18.920;2024-01-15T00:44:12;98627.41;;;1.21;65.09
82353;BME280;71954;47.430;18.920;2024-01-15T00:46:45;98620.31;;;1.23;65.10
82353;BME280;71954;47.430;18.920;2024-01-15T00:49:13;98617.59;;;1.25;64.61
82353;BME280;71954;47.430;18.920;2024-01-15T00:51:40;98608.00;;;1.26;64.80
82353;BME280;71954;47.430;18.920;2024-01-15T00:54:07;98615.09;;;1.23;64.44
82353;BME280;71954;47.430;18.920;2024-01-15T00:56:34;98626.47;;;1.22;64.62
82353;BME280;71954;47.430;18.920;2024-01-15T00:59:00;98612.13;;;1.15;64.82
82353;BME280;71954;47.430;18.920;2024-01-15T01:01:27;98603.09;;;1.07;64.98
82353;BME280;71954;47.430;18.920;2024-01-15T01:03:54;98609.44;;;1.03;65.45
82353;BME280;71954;47.430;18.920;2024-01-15T01:06:21;98599.97;;;1.02;65.31
82353;BME280;71954;47.430;18.920;2024-01-15T01:08:47;98619.19;;;1.01;65.26
82353;BME280;71954;47.430;18.920;2024-01-15T01:11:15;98613.94;;;1.01;65.28
82353;BME280;71954;47.430;18.920;2024-01-15T01:13:42;98613.94;;;1.01;65.71
82353;BME280;71954;47.430;18.920;2024-01-15T01:16:09;98601.19;;;0.96;65.53
82353;BME280;71954;47.430;18.920;2024-01-15T01:18:35;98603.22;;;0.91;65.56
82353;BME280;71954;47.430;18.920;2024-01-15T01:21:03;98598.13;;;0.90;65.69
82353;BME280;71954;47.430;18.920;2024-01-15T01:23:30;98599.91;;;0.89;65.33
82353;BME280;71954;47.430;18.920;2024-01-15T01:25:56;98587.31;;;0.81;65.53
82353;BME280;71954;47.430;18.920;2024-01-15T01:28:23;98590.22;;;0.77;65.76
82353;BME280;71954;47.430;18.920;2024-01-15T01:30:49;98584.63;;;0.69;65.38
82353;BME280;71954;47.430;18.920;2024-01-15T01:33:16;98577.19;;;0.63;65.80
82353;BME280;71954;47.430;18.920;2024-01-15T01:35:43;98574.78;;;0.60;66.16
82353;BME280;71954;47.430;18.920;2024-01-15T01:38:11;98565.66;;;0.53;65.93
82353;BME280;71954;47.430;18.920;2024-01-15T01:40:37;98562.50;;;0.48;66.47
82353;BME280;71954;47.430;18.920;2024-01-15T01:43:05;98553.81;;;0.47;66.57
82353;BME280;71954;47.430;18.920;2024-01-15T01:45:31;98554.94;;;0.43;66.42
82353;BME280;71954;47.430;18.920;2024-01-15T01:47:59;98555.97;;;0.40;66.16
82353;BME280;71954;47.430;18.920;2024-01-15T01:50:28;98550.00;;;0.38;65.89
82353;BME280;71954;47.430;18.920;2024-01-15T01:52:55;98548.25;;;0.39;65.88
82353;BME280;71954;47.430;18.920;2024-01-15T01:55:24;98530.06;;;0.37;65.57
82353;BME280;71954;47.430;18.920;2024-01-15T01:57:53;98539.78;;;0.35;64.50
82353;BME280;71954;47.430;18.920;2024-01-15T02:00:20;98539.78;;;0.35;64.21
82353;BME280;71954;47.430;18.920;2024-01-15T02:02:47;98543.69;;;0.14;65.05
82353;BME280;71954;47.430;18.920;2024-01-15T02:05:18;98515.56;;;-0.09;65.73
82353;BME280;71954;47.430;18.920;2024-01-15T02:07:45;98521.78;;;-0.12;66.51
82353;BME280;71954;47.430;18.920;2024-01-15T02:10:11;98514.09;;;-0.13;65.83
82353;BME280;71954;47.430;18.920;2024-01-15T02:12:38;98517.78;;;-0.17;65.28
82353;BME280;71954;47.430;18.920;2024-01-15T02:15:05;98540.41;;;-0.18;65.41
82353;BME280;71954;47.430;18.920;2024-01-15T02:17:32;98527.06;;;-0.42;64.74
82353;BME280;71954;47.430;18.920;2024-01-15T02:19:59;98532.09;;;-0.53;66.25
82353;BME280;71954;47.430;18.920;2024-01-15T02:22:25;98532.16;;;-0.54;67.28
82353;BME280;71954;47.430;18.920;2024-01-15T02:24:52;98509.81;;;-0.72;66.65
82353;BME280;71954;47.430;18.920;2024-01-15T02:27:19;98523.94;;;-0.76;67.26
82353;BME280;71954;47.430;18.920;2024-01-15T02:29:47;98506.53;;;-0.76;67.41
82353;BME280;71954;47.430;18.920;2024-01-15T02:32:14;98513.16;;;-0.85;67.51
82353;BME280;71954;47.430;18.920;2024-01-15T02:34:41;98512.38;;;-0.87;68.02
82353;BME280;71954;47.430;18.920;2024-01-15T02:37:07;98509.44;;;-0.96;67.41
82353;BME280;71954;47.430;18.920;2024-01-15T02:39:34;98505.00;;;-0.94;68.03
82353;BME280;71954;47.430;18.920;2024-01-15T02:42:01;98495.88;;;-1.01;68.34
82353;BME280;71954;47.430;18.920;2024-01-15T02:44:27;98500.16;;;-1.00;68.52
82353;BME280;71954;47.430;18.920;2024-01-15T02:46:54;98475.78;;;-0.99;67.96
82353;BME280;71954;47.430;18.920;2024-01-15T02:49:20;98495.03;;;-1.02;67.93
82353;BME280;71954;47.430;18.920;2024-01-15T02:51:47;98527.38;;;-1.06;67.47
82353;BME280;71954;47.430;18.920;2024-01-15T02:54:14;98519.28;;;-1.01;66.79
82353;BME280;71954;47.430;18.920;2024-01-15T02:56:40;98510.25;;;-1.10;67.37
82353;BME280;71954;47.430;18.920;2024-01-15T02:59:07;98499.00;;;-1.10;67.86
82353;BME280;71954;47.430;18.920;2024-01-15T03:01:34;98496.31;;;-1.09;67.21
82353;BME280;71954;47.430;18.920;2024-01-15T03:04:00;98485.91;;;-1.09;67.38
82353;BME280;71954;47.430;18.920;2024-01-15T03:06:27;98477.16;;;-1.08;67.33
82353;BME280;71954;47.430;18.920;2024-01-15T03:08:54;98476.16;;;-1.05;65.53
82353;BME280;71954;47.430;18.920;2024-01-15T03:11:20;98472.63;;;-1.04;66.37
82353;BME280;71954;47.430;18.920;2024-01-15T03:13:47;98466.50;;;-1.03;67.22
82353;BME280;71954;47.430;18.920;2024-01-15T03:16:13;98456.78;;;-1.15;66.98
82353;BME280;71954;47.430;18.920;2024-01-15T03:18:40;98455.06;;;-1.31;67.80
82353;BME280;71954;47.430;18.920;2024-01-15T03:21:07;98456.81;;;-1.31;68.10
82353;BME280;71954;47.430;18.920;2024-01-15T03:23:34;98451.53;;;-1.30;67.52
82353;BME280;71954;47.430;18.920;2024-01-15T03:26:00;98444.56;;;-1.29;66.83
82353;BME280;71954;47.430;18.920;2024-01-15T03:28:27;98445.00;;;-1.37;66.84
82353;BME280;71954;47.430;18.920;2024-01-15T03:30:53;98436.88;;;-1.62;68.84
82353;BME280;71954;47.430;18.920;2024-01-15T03:33:20;98469.84;;;-1.63;69.40
82353;BME280;71954;47.430;18.920;2024-01-15T03:35:47;98455.78;;;-1.58;69.07
82353;BME280;71954;47.430;18.920;2024-01-15T03:38:14;98487.50;;;-1.52;69.50
82353;BME280;71954;47.430;18.920;2024-01-15T03:40:40;98475.06;;;-1.47;69.22
82353;BME280;71954;47.430;18.920;2024-01-15T03:43:08;98464.50;;;-1.59;69.97
82353;BME280;71954;47.430;18.920;2024-01-15T03:45:35;98463.50;;;-1.57;70.06
82353;BME280;71954;47.430;18.920;2024-01-15T03:48:01;98484.22;;;-1.71;69.26
82353;BME280;71954;47.430;18.920;2024-01-15T03:50:28;98484.38;;;-1.74;70.14
82353;BME280;71954;47.430;18.920;2024-01-15T03:52:54;98484.38;;;-1.74;69.65
82353;BME280;71954;47.430;18.920;2024-01-15T03:55:21;98472.72;;;-1.83;70.47
82353;BME280;71954;47.430;18.920;2024-01-15T03:57:48;98480.28;;;-1.78;70.61
82353;BME280;71954;47.430;18.920;2024-01-15T04:00:15;98486.66;;;-1.84;71.02
82353;BME280;71954;47.430;18.920;2024-01-15T04:02:44;98487.06;;;-1.91;71.50
82353;BME280;71954;47.430;18.920;2024-01-15T04:05:11;98492.69;;;-1.83;70.67
82353;BME280;71954;47.430;18.920;2024-01-15T04:07:37;98465.19;;;-1.87;70.47
82353;BME280;71954;47.430;18.920;2024-01-15T04:10:04;98460.56;;;-1.82;70.48
82353;BME280;71954;47.430;18.920;2024-01-15T04:12:31;98453.78;;;-2.00;70.90
82353;BME280;71954;47.430;18.920;2024-01-15T04:14:58;98443.53;;;-2.19;72.20
82353;BME280;71954;47.430;18.920;2024-01-15T04:17:24;98438.00;;;-2.13;71.67
82353;BME280;71954;47.430;18.920;2024-01-15T04:19:51;98434.81;;;-2.02;71.30
82353;BME280;71954;47.430;18.920;2024-01-15T04:22:18;98442.84;;;-1.91;70.68
82353;BME280;71954;47.430;18.920;2024-01-15T04:24:44;98441.19;;;-2.08;71.59
82353;BME280;71954;47.430;18.920;2024-01-15T04:27:11;98435.66;;;-2.02;71.09
82353;BME280;71954;47.430;18.920;2024-01-15T04:29:38;98432.72;;;-1.96;70.60
82353;BME280;71954;47.430;18.920;2024-01-15T04:32:07;98445.66;;;-1.94;69.21
82353;BME280;71954;47.430;18.920;2024-01-15T04:34:33;98438.34;;;-2.03;69.95
82353;BME280;71954;47.430;18.920;2024-01-15T04:37:00;98436.25;;;-1.97;69.77
82353;BME280;71954;47.430;18.920;2024-01-15T04:39:27;98426.88;;;-1.99;69.36
82353;BME280;71954;47.430;18.920;2024-01-15T04:41:54;98427.00;;;-2.02;69.74
82353;BME280;71954;47.430;18.920;2024-01-15T04:44:20;98418.97;;;-1.98;69.31
82353;BME280;71954;47.430;18.920;2024-01-15T04:46:47;98423.09;;;-1.94;69.43
82353;BME280;71954;47.430;18.920;2024-01-15T04:49:14;98423.09;;;-1.94;69.03
82353;BME280;71954;47.430;18.920;2024-01-15T04:51:40;98434.00;;;-1.87;68.54
82353;BME280;71954;47.430;18.920;2024-01-15T04:54:07;98432.13;;;-1.85;68.60
82353;BME280;71954;47.430;18.920;2024-01-15T04:56:34;98438.84;;;-1.81;68.63
82353;BME280;71954;47.430;18.920;2024-01-15T04:59:00;98435.91;;;-1.75;67.35
82353;BME280;71954;47.430;18.920;2024-01-15T05:01:31;98445.22;;;-1.71;67.63
82353;BME280;71954;47.430;18.920;2024-01-15T05:03:59;98438.00;;;-1.66;67.98
82353;BME280;71954;47.430;18.920;2024-01-15T05:06:26;98428.59;;;-1.69;66.92
82353;BME280;71954;47.430;18.920;2024-01-15T05:08:53;98437.16;;;-1.67;66.00
82353;BME280;71954;47.430;18.920;2024-01-15T05:11:19;98443.19;;;-1.66;66.42
82353;BME280;71954;47.430;18.920;2024-01-15T05:13:46;98451.56;;;-1.61;66.19
82353;BME280;71954;47.430;18.920;2024-01-15T05:16:12;98444.78;;;-1.63;66.61
82353;BME280;71954;47.430;18.920;2024-01-15T05:18:39;98439.19;;;-1.87;66.30
82353;BME280;71954;47.430;18.920;2024-01-15T05:21:06;98434.66;;;-1.99;67.36
82353;BME280;71954;47.430;18.920;2024-01-15T05:23:33;98446.91;;;-2.01;67.43
82353;BME280;71954;47.430;18.920;2024-01-15T05:26:00;98445.88;;;-2.15;67.22
82353;BME280;71954;47.430;18.920;2024-01-15T05:28:27;98451.56;;;-2.24;68.50
82353;BME280;71954;47.430;18.920;2024-01-15T05:30:54;98449.00;;;-2.41;68.43
82353;BME280;71954;47.430;18.920;2024-01-15T05:33:23;98458.97;;;-2.49;69.41
82353;BME280;71954;47.430;18.920;2024-01-15T05:35:50;98441.53;;;-2.47;69.58
82353;BME280;71954;47.430;18.920;2024-01-15T05:38:17;98438.63;;;-2.41;69.77
82353;BME280;71954;47.430;18.920;2024-01-15T05:40:44;98438.28;;;-2.35;69.80
82353;BME280;71954;47.430;18.920;2024-01-15T05:43:10;98439.66;;;-2.28;69.37
82353;BME280;71954;47.430;18.920;2024-01-15T05:45:38;98442.84;;;-2.23;69.55
82353;BME280;71954;47.430;18.920;2024-01-15T05:48:05;98460.53;;;-2.14;68.27
82353;BME280;71954;47.430;18.920;2024-01-15T05:50:32;98466.19;;;-2.06;67.90
82353;BME280;71954;47.430;18.920;2024-01-15T05:52:58;98457.44;;;-2.05;68.77
82353;BME280;71954;47.430;18.920;2024-01-15T05:55:25;98451.00;;;-2.13;69.62
82353;BME280;71954;47.430;18.920;2024-01-15T05:57:51;98455.81;;;-2.23;69.43
82353;BME280;71954;47.430;18.920;2024-01-15T06:00:18;98444.50;;;-2.22;69.51
82353;BME280;71954;47.430;18.920;2024-01-15T06:02:45;98442.44;;;-2.15;69.79
82353;BME280;71954;47.430;18.920;2024-01-15T06:05:12;98436.97;;;-2.11;70.46
82353;BME280;71954;47.430;18.920;2024-01-15T06:07:39;98435.84;;;-2.05;69.98
82353;BME280;71954;47.430;18.920;2024-01-15T06:10:06;98436.16;;;-1.95;71.03
82353;BME280;71954;47.430;18.920;2024-01-15T06:12:33;98435.63;;;-1.86;71.16
82353;BME280;71954;47.430;18.920;2024-01-15T06:15:00;98441.88;;;-1.89;71.64
82353;BME280;71954;47.430;18.920;2024-01-15T06:17:26;98439.00;;;-1.84;72.14
82353;BME280;71954;47.430;18.920;2024-01-15T06:19:53;98453.09;;;-1.88;72.68
82353;BME280;71954;47.430;18.920;2024-01-15T06:22:20;98461.31;;;-1.80;72.41
82353;BME280;71954;47.430;18.920;2024-01-15T06:24:46;98462.38;;;-1.69;70.26
82353;BME280;71954;47.430;18.920;2024-01-15T06:27:13;98448.97;;;-1.61;70.09
82353;BME280;71954;47.430;18.920;2024-01-15T06:29:45;98453.59;;;-1.66;69.93
82353;BME280;71954;47.430;18.920;2024-01-15T06:32:16;98447.47;;;-1.65;70.46
82353;BME280;71954;47.430;18.920;2024-01-15T06:34:43;98446.09;;;-1.56;70.64
82353;BME280;71954;47.430;18.920;2024-01-15T06:37:09;98450.88;;;-1.49;68.89
82353;BME280;71954;47.430;18.920;2024-01-15T06:39:36;98445.53;;;-1.46;69.63
82353;BME280;71954;47.430;18.920;2024-01-15T06:42:03;98452.22;;;-1.42;70.01
82353;BME280;71954;47.430;18.920;2024-01-15T06:44:29;98452.78;;;-1.37;70.66
82353;BME280;71954;47.430;18.920;2024-01-15T06:46:56;98454.75;;;-1.40;69.40
82353;BME280;71954;47.430;18.920;2024-01-15T06:49:26;98451.88;;;-1.36;69.51
82353;BME280;71954;47.430;18.920;2024-01-15T06:51:53;98459.34;;;-1.30;69.79
82353;BME280;71954;47.430;18.920;2024-01-15T06:54:20;98456.53;;;-1.27;68.50
82353;BME280;71954;47.430;18.920;2024-01-15T06:56:47;98464.75;;;-1.18;68.50
82353;BME280;71954;47.430;18.920;2024-01-15T06:59:13;98463.56;;;-1.13;69.03
82353;BME280;71954;47.430;18.920;2024-01-15T07:01:45;98450.19;;;-1.07;67.73
82353;BME280;71954;47.430;18.920;2024-01-15T07:04:12;98458.94;;;-1.08;68.40
82353;BME280;71954;47.430;18.920;2024-01-15T07:06:38;98469.25;;;-1.06;68.71
82353;BME280;71954;47.430;18.920;2024-01-15T07:09:05;98472.63;;;-1.04;68.88
82353;BME280;71954;47.430;18.920;2024-01-15T07:11:32;98470.94;;;-1.05;69.90
82353;BME280;71954;47.430;18.920;2024-01-15T07:13:59;98466.94;;;-1.27;69.10
82353;BME280;71954;47.430;18.920;2024-01-15T07:16:25;98465.31;;;-1.28;70.73
82353;BME280;71954;47.430;18.920;2024-01-15T07:19:03;98477.28;;;-1.25;70.72
82353;BME280;71954;47.430;18.920;2024-01-15T07:21:30;98484.75;;;-1.19;70.58
82353;BME280;71954;47.430;18.920;2024-01-15T07:23:56;98478.88;;;-1.23;71.29
82353;BME280;71954;47.430;18.920;2024-01-15T07:26:23;98479.38;;;-1.16;70.85
82353;BME280;71954;47.430;18.920;2024-01-15T07:28:50;98481.22;;;-1.18;71.14
82353;BME280;71954;47.430;18.920;2024-01-15T07:31:17;98488.81;;;-1.29;70.90
82353;BME280;71954;47.430;18.920;2024-01-15T07:33:44;98482.47;;;-1.25;71.23
82353;BME280;71954;47.430;18.920;2024-01-15T07:36:11;98487.25;;;-1.17;71.01
82353;BME280;71954;47.430;18.920;2024-01-15T07:38:37;98487.84;;;-1.12;70.05
82353;BME280;71954;47.430;18.920;2024-01-15T07:41:04;98484.88;;;-1.06;69.61
82353;BME280;71954;47.430;18.920;2024-01-15T07:43:30;98498.31;;;-0.98;69.49
82353;BME280;71954;47.430;18.920;2024-01-15T07:45:57;98490.06;;;-0.91;68.70
82353;BME280;71954;47.430;18.920;2024-01-15T07:48:26;98487.19;;;-0.86;67.68
82353;BME280;71954;47.430;18.920;2024-01-15T07:50:52;98487.00;;;-0.83;67.23
82353;BME280;71954;47.430;18.920;2024-01-15T07:53:19;98487.66;;;-0.79;67.85
82353;BME280;71954;47.430;18.920;2024-01-15T07:55:46;98473.72;;;-0.78;67.52
82353;BME280;71954;47.430;18.920;2024-01-15T07:58:12;98477.06;;;-0.76;67.58
82353;BME280;71954;47.430;18.920;2024-01-15T08:00:42;98486.38;;;-0.72;67.10
82353;BME280;71954;47.430;18.920;2024-01-15T08:03:11;98489.63;;;-0.69;67.92
82353;BME280;71954;47.430;18.920;2024-01-15T08:05:38;98479.97;;;-0.67;67.49
82353;BME280;71954;47.430;18.920;2024-01-15T08:08:05;98488.44;;;-0.63;67.45
82353;BME280;71954;47.430;18.920;2024-01-15T08:10:31;98491.84;;;-0.77;68.84
82353;BME280;71954;47.430;18.920;2024-01-15T08:12:58;98490.16;;;-0.78;71.02
82353;BME280;71954;47.430;18.920;2024-01-15T08:15:25;98501.19;;;-0.73;72.87
82353;BME280;71954;47.430;18.920;2024-01-15T08:17:56;98493.25;;;-0.71;73.57
82353;BME280;71954;47.430;18.920;2024-01-15T08:20:23;98494.50;;;-0.63;74.10
82353;BME280;71954;47.430;18.920;2024-01-15T08:22:50;98494.28;;;-0.60;74.65
82353;BME280;71954;47.430;18.920;2024-01-15T08:25:17;98484.81;;;-0.61;74.98
82353;BME280;71954;47.430;18.920;2024-01-15T08:27:43;98494.88;;;-0.55;75.26
82353;BME280;71954;47.430;18.920;2024-01-15T08:30:11;98494.72;;;-0.37;74.79
82353;BME280;71954;47.430;18.920;2024-01-15T08:32:38;98489.22;;;-0.19;73.34
82353;BME280;71954;47.430;18.920;2024-01-15T08:35:09;98498.41;;;0.01;72.49
82353;BME280;71954;47.430;18.920;2024-01-15T08:37:37;98500.28;;;0.13;71.63
82353;BME280;71954;47.430;18.920;2024-01-15T08:40:04;98485.91;;;0.34;71.23
82353;BME280;71954;47.430;18.920;2024-01-15T08:42:31;98487.66;;;0.48;72.19
82353;BME280;71954;47.430;18.920;2024-01-15T08:44:57;98497.31;;;0.60;70.86
82353;BME280;71954;47.430;18.920;2024-01-15T08:47:24;98490.34;;;0.73;69.86
82353;BME280;71954;47.430;18.920;2024-01-15T08:49:52;98487.28;;;0.94;69.99
82353;BME280;71954;47.430;18.920;2024-01-15T08:52:19;98496.50;;;0.99;69.67
82353;BME280;71954;47.430;18.920;2024-01-15T08:54:46;98499.16;;;1.12;67.81
82353;BME280;71954;47.430;18.920;2024-01-15T08:57:13;98493.13;;;1.24;66.97
82353;BME280;71954;47.430;18.920;2024-01-15T08:59:40;98496.69;;;1.36;68.01
82353;BME280;71954;47.430;18.920;2024-01-15T09:02:07;98495.13;;;1.46;68.22
82353;BME280;71954;47.430;18.920;2024-01-15T09:04:34;98507.06;;;1.50;67.20
82353;BME280;71954;47.430;18.920;2024-01-15T09:07:01;98511.56;;;1.60;66.92
82353;BME280;71954;47.430;18.920;2024-01-15T09:09:28;98508.09;;;1.60;67.80
82353;BME280;71954;47.430;18.920;2024-01-15T09:11:55;98506.22;;;1.62;68.74
82353;BME280;71954;47.430;18.920;2024-01-15T09:14:21;98496.28;;;1.67;67.24
82353;BME280;71954;47.430;18.920;2024-01-15T09:17:04;98491.47;;;1.61;68.12
82353;BME280;71954;47.430;18.920;2024-01-15T09:19:30;98497.00;;;1.69;67.67
82353;BME280;71954;47.430;18.920;2024-01-15T09:21:58;98495.38;;;1.68;67.17
82353;BME280;71954;47.430;18.920;2024-01-15T09:24:25;98498.50;;;1.60;66.83
82353;BME280;71954;47.430;18.920;2024-01-15T09:26:54;98495.22;;;1.70;66.14
82353;BME280;71954;47.430;18.920;2024-01-15T09:29:21;98483.31;;;1.78;64.63
82353;BME280;71954;47.430;18.920;2024-01-15T09:31:50;98484.06;;;1.80;65.18
82353;BME280;71954;47.430;18.920;2024-01-15T09:34:17;98486.53;;;1.94;63.29
82353;BME280;71954;47.430;18.920;2024-01-15T09:36:44;98482.38;;;2.04;63.70
82353;BME280;71954;47.430;18.920;2024-01-15T09:39:11;98477.50;;;2.11;63.71
82353;BME280;71954;47.430;18.920;2024-01-15T09:41:38;98463.47;;;2.25;62.66
82353;BME280;71954;47.430;18.920;2024-01-15T09:44:05;98466.38;;;2.33;62.22
82353;BME280;71954;47.430;18.920;2024-01-15T09:46:34;98459.03;;;2.38;61.90
82353;BME280;71954;47.430;18.920;2024-01-15T09:49:01;98455.78;;;2.47;62.36
82353;BME280;71954;47.430;18.920;2024-01-15T09:51:31;98448.06;;;2.57;61.63
82353;BME280;71954;47.430;18.920;2024-01-15T09:53:58;98439.88;;;2.61;63.10
82353;BME280;71954;47.430;18.920;2024-01-15T09:56:25;98442.38;;;2.63;61.96
82353;BME280;71954;47.430;18.920;2024-01-15T09:58:52;98438.09;;;2.62;63.00
82353;BME280;71954;47.430;18.920;2024-01-15T10:01:22;98448.03;;;2.69;62.48
82353;BME280;71954;47.430;18.920;2024-01-15T10:03:50;98442.94;;;2.79;60.90
82353;BME280;71954;47.430;18.920;2024-01-15T10:06:17;98432.00;;;2.85;61.06
82353;BME280;71954;47.430;18.920;2024-01-15T10:08:51;98432.38;;;2.92;61.73
82353;BME280;71954;47.430;18.920;2024-01-15T10:11:18;98438.97;;;2.97;60.59
82353;BME280;71954;47.430;18.920;2024-01-15T10:13:46;98442.88;;;2.92;59.63
82353;BME280;71954;47.430;18.920;2024-01-15T10:16:15;98428.59;;;2.96;59.40
82353;BME280;71954;47.430;18.920;2024-01-15T10:18:42;98420.06;;;3.05;60.42
82353;BME280;71954;47.430;18.920;2024-01-15T10:21:09;98418.75;;;3.10;59.69
82353;BME280;71954;47.430;18.920;2024-01-15T10:23:35;98409.59;;;3.16;59.25
82353;BME280;71954;47.430;18.920;2024-01-15T10:26:05;98401.16;;;3.23;57.16
82353;BME280;71954;47.430;18.920;2024-01-15T10:28:32;98402.94;;;3.34;56.16
82353;BME280;71954;47.430;18.920;2024-01-15T10:30:59;98403.91;;;3.44;57.46
82353;BME280;71954;47.430;18.920;2024-01-15T10:33:27;98399.03;;;3.40;59.66
82353;BME280;71954;47.430;18.920;2024-01-15T10:35:59;98399.19;;;3.49;56.60
82353;BME280;71954;47.430;18.920;2024-01-15T10:38:26;98391.06;;;3.52;54.97
82353;BME280;71954;47.430;18.920;2024-01-15T10:40:54;98398.22;;;3.61;56.45
82353;BME280;71954;47.430;18.920;2024-01-15T10:43:22;98403.69;;;3.69;55.09
82353;BME280;71954;47.430;18.920;2024-01-15T10:45:53;98395.13;;;3.79;54.42
82353;BME280;71954;47.430;18.920;2024-01-15T10:48:20;98394.38;;;3.88;53.64
82353;BME280;71954;47.430;18.920;2024-01-15T10:50:47;98385.81;;;3.97;53.63
82353;BME280;71954;47.430;18.920;2024-01-15T10:53:15;98387.09;;;4.02;53.84
82353;BME280;71954;47.430;18.920;2024-01-15T10:55:43;98389.47;;;4.05;54.25
82353;BME280;71954;47.430;18.920;2024-01-15T10:58:10;98386.81;;;4.17;52.88
82353;BME280;71954;47.430;18.920;2024-01-15T11:00:37;98388.63;;;4.16;53.19
82353;BME280;71954;47.430;18.920;2024-01-15T11:03:07;98392.19;;;4.26;52.12
82353;BME280;71954;47.430;18.920;2024-01-15T11:05:40;98389.91;;;4.33;53.58
82353;BME280;71954;47.430;18.920;2024-01-15T11:08:08;98388.72;;;4.26;54.34
82353;BME280;71954;47.430;18.920;2024-01-15T11:10:46;98386.22;;;4.24;54.14
82353;BME280;71954;47.430;18.920;2024-01-15T11:13:19;98395.50;;;4.28;51.84
82353;BME280;71954;47.430;18.920;2024-01-15T11:16:19;98379.03;;;4.37;52.48
82353;BME280;71954;47.430;18.920;2024-01-15T11:21:25;98385.91;;;4.49;53.74
82353;BME280;71954;47.430;18.920;2024-01-15T11:23:58;98371.56;;;4.54;51.11
82353;BME280;71954;47.430;18.920;2024-01-15T11:28:57;98378.03;;;4.49;51.09
82353;BME280;71954;47.430;18.920;2024-01-15T11:34:09;98376.13;;;4.52;51.51
82353;BME280;71954;47.430;18.920;2024-01-15T11:41:55;98368.44;;;4.60;51.67
82353;BME280;71954;47.430;18.920;2024-01-15T11:44:22;98361.28;;;4.62;51.86
82353;BME280;71954;47.430;18.920;2024-01-15T11:47:02;98353.13;;;4.65;51.37
82353;BME280;71954;47.430;18.920;2024-01-15T11:52:16;98334.38;;;4.69;51.75
82353;BME280;71954;47.430;18.920;2024-01-15T11:54:49;98322.38;;;4.76;51.48
82353;BME280;71954;47.430;18.920;2024-01-15T11:57:27;98317.94;;;4.77;51.56
82353;BME280;71954;47.430;18.920;2024-01-15T11:59:57;98327.50;;;4.78;50.73
82353;BME280;71954;47.430;18.920;2024-01-15T12:02:24;98327.84;;;4.64;54.37
82353;BME280;71954;47.430;18.920;2024-01-15T12:04:50;98329.25;;;4.68;52.22
82353;BME280;71954;47.430;18.920;2024-01-15T12:07:17;98333.28;;;4.72;50.86
82353;BME280;71954;47.430;18.920;2024-01-15T12:09:44;98328.28;;;4.69;52.08
82353;BME280;71954;47.430;18.920;2024-01-15T12:12:17;98316.31;;;4.76;50.59
82353;BME280;71954;47.430;18.920;2024-01-15T12:14:47;98312.97;;;4.74;49.71
82353;BME280;71954;47.430;18.920;2024-01-15T12:17:14;98319.91;;;4.75;50.22
82353;BME280;71954;47.430;18.920;2024-01-15T12:19:40;98311.06;;;4.76;49.34
82353;BME280;71954;47.430;18.920;2024-01-15T12:22:07;98319.28;;;4.71;49.02
82353;BME280;71954;47.430;18.920;2024-01-15T12:24:34;98313.72;;;4.65;49.38
82353;BME280;71954;47.430;18.920;2024-01-15T12:27:01;98314.94;;;4.61;49.14
82353;BME280;71954;47.430;18.920;2024-01-15T12:29:28;98309.13;;;4.57;49.42
82353;BME280;71954;47.430;18.920;2024-01-15T12:31:54;98294.09;;;4.48;50.18
82353;BME280;71954;47.430;18.920;2024-01-15T12:34:22;98287.88;;;4.49;51.12
82353;BME280;71954;47.430;18.920;2024-01-15T12:36:49;98284.53;;;4.47;51.25
82353;BME280;71954;47.430;18.920;2024-01-15T12:39:16;98284.31;;;4.50;50.56
82353;BME280;71954;47.430;18.920;2024-01-15T12:41:43;98279.63;;;4.54;50.09
82353;BME280;71954;47.430;18.920;2024-01-15T12:44:09;98279.38;;;4.57;49.74
82353;BME280;71954;47.430;18.920;2024-01-15T12:46:36;98271.09;;;4.61;49.88
82353;BME280;71954;47.430;18.920;2024-01-15T12:49:04;98274.69;;;4.60;49.97
82353;BME280;71954;47.430;18.920;2024-01-15T12:51:34;98275.53;;;4.61;50.04
82353;BME280;71954;47.430;18.920;2024-01-15T12:54:01;98281.06;;;4.58;50.30
82353;BME280;71954;47.430;18.920;2024-01-15T12:56:27;98286.16;;;4.59;49.96
82353;BME280;71954;47.430;18.920;2024-01-15T12:58:54;98272.34;;;4.57;50.59
82353;BME280;71954;47.430;18.920;2024-01-15T13:01:21;98290.28;;;4.52;50.48
82353;BME280;71954;47.430;18.920;2024-01-15T13:03:48;98289.75;;;4.37;51.48
82353;BME280;71954;47.430;18.920;2024-01-15T13:06:14;98284.72;;;4.34;51.59
82353;BME280;71954;47.430;18.920;2024-01-15T13:08:41;98293.91;;;4.40;51.17
82353;BME280;71954;47.430;18.920;2024-01-15T13:11:08;98282.31;;;4.42;51.63